createdAt,value
2022-10-23T07:33:22.174Z,96865.63
2022-10-23T07:35:24.896Z,96862.09
2022-10-23T07:37:27.564Z,96862.69
2022-10-23T07:39:30.298Z,96851.88
2022-10-23T07:41:33.196Z,96840.22
2022-10-23T07:43:36.025Z,96848.22
2022-10-23T07:45:38.807Z,96846.34
2022-10-23T07:47:41.957Z,96849.78
2022-10-23T07:49:46.208Z,96845.69
2022-10-23T07:51:51.420Z,96843.72
2022-10-23T07:53:54.407Z,96838.44
2022-10-23T07:55:59.030Z,96839.13
2022-10-23T07:58:01.895Z,96845.34
2022-10-23T08:00:06.139Z,96850.00
2022-10-23T08:02:12.507Z,96839.88
2022-10-23T08:04:15.526Z,96842.88
2022-10-23T08:06:19.733Z,96845.88
2022-10-23T08:08:22.565Z,96848.06
2022-10-23T08:10:25.305Z,96859.91
2022-10-23T08:12:28.017Z,96854.06
2022-10-23T08:14:30.723Z,96850.38
2022-10-23T08:16:35.242Z,96845.81
2022-10-23T08:18:38.017Z,96857.09
2022-10-23T08:20:40.891Z,96852.31
2022-10-23T08:22:44.784Z,96851.25
2022-10-23T08:24:47.524Z,96854.50
2022-10-23T08:26:50.844Z,96852.63
2022-10-23T08:28:55.422Z,96847.28
2022-10-23T08:30:58.252Z,96842.25
2022-10-23T08:33:01.083Z,96845.50
2022-10-23T08:35:04.173Z,96854.34
2022-10-23T08:37:06.949Z,96853.28
2022-10-23T08:39:11.129Z,96851.19
2022-10-23T08:41:25.164Z,96849.09
2022-10-23T08:43:35.496Z,96854.19
2022-10-23T08:45:45.000Z,96842.69
2022-10-23T08:47:53.241Z,96836.88
2022-10-23T08:49:59.760Z,96842.78
2022-10-23T08:52:11.694Z,96838.25
2022-10-23T08:54:22.417Z,96841.97
2022-10-23T08:56:28.782Z,96836.38
2022-10-23T08:58:40.098Z,96833.44
2022-10-23T09:00:43.860Z,96828.66
2022-10-23T09:02:49.023Z,96829.47
2022-10-23T09:04:54.773Z,96820.72
2022-10-23T09:09:41.747Z,96833.91
2022-10-23T09:11:51.923Z,96825.88
2022-10-23T09:14:17.310Z,96820.53
2022-10-23T09:16:30.701Z,96814.34
2022-10-23T09:18:33.510Z,96807.13
2022-10-23T09:20:37.199Z,96803.91
2022-10-23T09:22:40.327Z,96814.34
2022-10-23T09:24:44.940Z,96814.66
2022-10-23T09:26:49.719Z,96817.94
2022-10-23T09:28:55.341Z,96817.69
2022-10-23T09:31:07.133Z,96810.47
2022-10-23T09:33:18.685Z,96821.25
2022-10-23T09:35:23.166Z,96813.53
2022-10-23T09:37:28.494Z,96809.00
2022-10-23T09:39:33.394Z,96815.16
2022-10-23T09:41:40.089Z,96819.47
2022-10-23T09:43:43.322Z,96822.94
2022-10-23T09:45:58.449Z,96809.00
2022-10-23T09:48:20.167Z,96817.03
2022-10-23T09:50:23.069Z,96816.44
2022-10-23T09:52:31.661Z,96821.50
2022-10-23T09:54:37.291Z,96831.66
2022-10-23T09:56:42.726Z,96825.47
2022-10-23T09:58:55.359Z,96837.25
2022-10-23T10:00:58.289Z,96828.16
2022-10-23T10:03:02.960Z,96825.22
2022-10-23T10:05:23.308Z,96836.50
2022-10-23T10:07:29.355Z,96832.53
2022-10-23T10:09:34.447Z,96827.75
2022-10-23T10:11:45.404Z,96836.91
2022-10-23T10:14:04.243Z,96836.66
2022-10-23T10:16:12.526Z,96845.25
2022-10-23T10:18:23.123Z,96851.44
2022-10-23T10:21:01.851Z,96874.72
2022-10-23T10:23:13.115Z,96861.09
2022-10-23T10:25:20.839Z,96865.06
2022-10-23T10:27:40.479Z,96871.50
2022-10-23T10:30:06.143Z,96861.09
2022-10-23T10:32:25.745Z,96856.31
2022-10-23T10:34:33.972Z,96865.97
2022-10-23T10:36:48.096Z,96847.78
2022-10-23T10:38:54.585Z,96829.56
2022-10-23T10:41:21.153Z,96831.19
2022-10-23T10:43:33.262Z,96810.56
2022-10-23T10:45:42.450Z,96803.91
2022-10-23T10:47:57.553Z,96823.56
2022-10-23T10:50:12.203Z,96817.38
2022-10-23T10:52:21.910Z,96820.13
2022-10-23T10:54:38.314Z,96819.63
2022-10-23T10:56:44.996Z,96837.34
2022-10-23T10:58:52.536Z,96847.00
2022-10-23T11:00:59.508Z,96848.06
2022-10-23T11:03:12.467Z,96847.25
2022-10-23T11:05:26.307Z,96834.09
2022-10-23T11:07:37.758Z,96790.63
2022-10-23T11:09:41.355Z,96751.75
2022-10-23T11:11:44.668Z,96753.06
2022-10-23T11:13:51.364Z,96772.88
2022-10-23T11:15:58.978Z,96801.31
2022-10-23T11:18:06.111Z,96773.69
2022-10-23T11:20:23.607Z,96776.66
2022-10-23T11:22:31.247Z,96805.66
2022-10-23T11:25:12.206Z,96770.59
2022-10-23T11:27:26.886Z,96754.97
2022-10-23T11:29:49.538Z,96773.47
2022-10-23T11:32:06.463Z,96784.22
2022-10-23T11:34:50.788Z,96775.34
2022-10-23T11:36:55.399Z,96782.59
2022-10-23T11:39:15.683Z,96776.41
2022-10-23T11:41:25.398Z,96755.78
2022-10-23T11:43:33.356Z,96752.28
2022-10-23T11:45:39.416Z,96735.41
2022-10-23T11:47:44.198Z,96735.16
2022-10-23T11:49:47.072Z,96735.16
2022-10-23T11:52:01.613Z,96738.09
2022-10-23T11:54:27.183Z,96737.78
2022-10-23T11:56:31.252Z,96749.63
2022-10-23T11:58:52.661Z,96734.34
2022-10-23T12:01:02.538Z,96736.47
2022-10-23T12:03:06.675Z,96752.28
2022-10-23T12:05:27.041Z,96732.72
2022-10-23T12:07:32.207Z,96730.03
2022-10-23T12:09:41.993Z,96733.53
2022-10-23T12:11:48.474Z,96729.78
2022-10-23T12:13:51.431Z,96733.88
2022-10-23T12:15:57.194Z,96709.16
2022-10-23T12:18:15.530Z,96707.06
2022-10-23T12:20:28.130Z,96699.00
2022-10-23T12:22:42.264Z,96706.53
2022-10-23T12:25:01.830Z,96713.53
2022-10-23T12:27:27.306Z,96707.09
2022-10-23T12:29:42.252Z,96710.34
2022-10-23T12:31:53.363Z,96709.28
2022-10-23T12:34:07.654Z,96707.66
2022-10-23T12:36:29.728Z,96702.28
2022-10-23T12:38:35.479Z,96682.47
2022-10-23T12:40:39.343Z,96677.09
2022-10-23T12:42:50.623Z,96672.81
2022-10-23T12:45:00.040Z,96674.94
2022-10-23T12:47:04.684Z,96680.00
2022-10-23T12:49:16.781Z,96674.63
2022-10-23T12:51:24.550Z,96676.50
2022-10-23T12:53:27.474Z,96679.75
2022-10-23T12:55:35.817Z,96679.19
2022-10-23T12:57:43.241Z,96685.09
2022-10-23T12:59:46.648Z,96681.88
2022-10-23T13:01:52.789Z,96672.75
2022-10-23T13:04:02.971Z,96676.50
2022-10-23T13:06:08.480Z,96674.38
2022-10-23T13:08:12.496Z,96669.03
2022-10-23T13:10:16.865Z,96674.94
2022-10-23T13:12:24.559Z,96679.22
2022-10-23T13:14:34.025Z,96677.63
2022-10-23T13:16:36.791Z,96666.63
2022-10-23T13:18:42.454Z,96656.97
2022-10-23T13:20:58.506Z,96663.16
2022-10-23T13:23:11.353Z,96652.41
2022-10-23T13:25:23.401Z,96644.38
2022-10-23T13:27:27.472Z,96672.00
2022-10-23T13:29:32.594Z,96667.69
2022-10-23T13:31:35.464Z,96669.56
2022-10-23T13:33:40.168Z,96668.75
2022-10-23T13:35:43.699Z,96650.81
2022-10-23T13:37:46.469Z,96659.66
2022-10-23T13:40:00.771Z,96650.81
2022-10-23T13:42:13.372Z,96640.88
2022-10-23T13:44:17.725Z,96641.69
2022-10-23T13:46:22.249Z,96650.81
2022-10-23T13:48:25.693Z,96642.50
2022-10-23T13:50:28.516Z,96637.94
2022-10-23T13:52:31.299Z,96639.56
2022-10-23T13:54:33.997Z,96650.28
2022-10-23T13:56:38.170Z,96644.38
2022-10-23T13:58:41.294Z,96650.56
2022-10-23T14:00:47.078Z,96646.50
2022-10-23T14:02:49.874Z,96620.50
2022-10-23T14:04:52.702Z,96605.78
2022-10-23T14:06:58.654Z,96585.41
2022-10-23T14:09:01.647Z,96616.75
2022-10-23T14:11:04.382Z,96618.38
2022-10-23T14:13:08.515Z,96618.13
2022-10-23T14:15:12.522Z,96620.81
2022-10-23T14:17:15.287Z,96617.56
2022-10-23T14:19:18.030Z,96616.75
2022-10-23T14:21:22.319Z,96615.97
2022-10-23T14:23:25.226Z,96608.97
2022-10-23T14:25:28.057Z,96611.41
2022-10-23T14:27:31.104Z,96603.63
2022-10-23T14:29:35.256Z,96614.88
2022-10-23T14:31:38.136Z,96597.19
2022-10-23T14:33:41.423Z,96607.91
2022-10-23T14:35:44.237Z,96615.97
2022-10-23T14:37:47.215Z,96607.91
2022-10-23T14:39:50.413Z,96618.63
2022-10-23T14:41:53.467Z,96618.63
2022-10-23T14:43:56.260Z,96607.91
2022-10-23T14:46:09.577Z,96597.19
2022-10-23T14:48:12.264Z,96593.97
2022-10-23T14:50:15.493Z,96599.59
2022-10-23T14:52:18.384Z,96597.44
2022-10-23T14:54:21.359Z,96600.94
2022-10-23T14:56:24.388Z,96597.44
2022-10-23T14:58:28.377Z,96592.91
2022-10-23T15:00:31.265Z,96586.97
2022-10-23T15:02:35.316Z,96588.59
2022-10-23T15:04:38.232Z,96589.13
2022-10-23T15:06:41.510Z,96578.63
2022-10-23T15:08:44.296Z,96579.47
2022-10-23T15:10:47.009Z,96576.78
2022-10-23T15:12:49.690Z,96589.13
2022-10-23T15:14:52.555Z,96576.53
2022-10-23T15:16:55.547Z,96578.41
2022-10-23T15:18:59.671Z,96566.06
2022-10-23T15:21:02.468Z,96567.09
2022-10-23T15:23:05.561Z,96564.19
2022-10-23T15:25:11.247Z,96561.72
2022-10-23T15:27:15.176Z,96564.13
2022-10-23T15:29:18.529Z,96557.41
2022-10-23T15:31:58.008Z,96560.63
2022-10-23T15:34:02.165Z,96562.78
2022-10-23T15:36:05.343Z,96564.41
2022-10-23T15:38:08.072Z,96576.19
2022-10-23T15:40:11.629Z,96587.97
2022-10-23T15:42:14.545Z,96584.19
2022-10-23T15:44:19.500Z,96588.50
2022-10-23T15:46:22.360Z,96612.38
2022-10-23T15:48:25.079Z,96597.91
2022-10-23T15:50:29.363Z,96599.78
2022-10-23T15:52:32.163Z,96593.34
2022-10-23T15:54:35.086Z,96583.44
2022-10-23T15:56:37.905Z,96576.44
2022-10-23T15:58:40.690Z,96567.06
2022-10-23T16:00:43.511Z,96565.44
2022-10-23T16:02:46.449Z,96575.91
2022-10-23T16:04:49.488Z,96571.91
2022-10-23T16:06:53.633Z,96579.94
2022-10-23T16:08:56.417Z,96597.38
2022-10-23T16:10:59.715Z,96600.31
2022-10-23T16:13:02.474Z,96609.44
2022-10-23T16:15:07.907Z,96613.97
2022-10-23T16:17:10.870Z,96628.19
2022-10-23T16:19:14.100Z,96631.13
2022-10-23T16:21:19.496Z,96626.31
2022-10-23T16:23:23.810Z,96623.63
2022-10-23T16:25:26.687Z,96623.09
2022-10-23T16:27:29.564Z,96623.34
2022-10-23T16:29:32.291Z,96631.94
2022-10-23T16:31:35.473Z,96622.28
2022-10-23T16:33:38.792Z,96616.09
2022-10-23T16:35:41.499Z,96624.97
2022-10-23T16:37:44.459Z,96623.09
2022-10-23T16:39:48.802Z,96631.38
2022-10-23T16:41:51.579Z,96635.13
2022-10-23T16:43:54.159Z,96640.47
2022-10-23T16:46:05.575Z,96641.28
2022-10-23T16:48:08.379Z,96626.03
2022-10-23T16:50:11.246Z,96636.75
2022-10-23T16:52:13.971Z,96628.16
2022-10-23T16:54:17.693Z,96639.94
2022-10-23T16:56:24.444Z,96645.03
2022-10-23T16:58:28.141Z,96647.47
2022-10-23T17:00:35.197Z,96649.09
2022-10-23T17:02:38.327Z,96657.13
2022-10-23T17:04:41.786Z,96663.03
2022-10-23T17:06:45.074Z,96668.41
2022-10-23T17:08:47.831Z,96670.81
2022-10-23T17:10:50.922Z,96674.09
2022-10-23T17:12:55.297Z,96684.56
2022-10-23T17:14:58.410Z,96699.56
2022-10-23T17:17:02.498Z,96704.94
2022-10-23T17:19:15.833Z,96723.69
2022-10-23T17:21:24.141Z,96730.69
2022-10-23T17:23:27.616Z,96750.25
2022-10-23T17:25:30.503Z,96767.13
2022-10-23T17:27:33.352Z,96787.53
2022-10-23T17:29:37.585Z,96803.59
2022-10-23T17:31:43.077Z,96816.22
2022-10-23T17:33:47.037Z,96813.78
2022-10-23T17:35:50.478Z,96820.75
2022-10-23T17:37:55.334Z,96851.31
2022-10-23T17:40:01.125Z,96851.88
2022-10-23T17:42:04.584Z,96850.00
2022-10-23T17:44:07.821Z,96850.75
2022-10-23T17:46:13.496Z,96869.97
2022-10-23T17:48:17.054Z,96874.22
2022-10-23T17:50:20.898Z,96881.97
2022-10-23T17:52:23.587Z,96900.47
2022-10-23T17:54:27.973Z,96911.50
2022-10-23T17:56:32.903Z,96905.91
2022-10-23T17:58:36.761Z,96905.41
2022-10-23T18:00:39.665Z,96911.59
2022-10-23T18:02:43.854Z,96910.78
2022-10-23T18:04:46.709Z,96910.78
2022-10-23T18:06:51.194Z,96911.59
2022-10-23T18:08:54.910Z,96907.03
2022-10-23T18:10:57.644Z,96903.31
2022-10-23T18:13:00.381Z,96909.22
2022-10-23T18:15:04.393Z,96903.63
2022-10-23T18:17:07.209Z,96895.31
2022-10-23T18:19:12.079Z,96894.84
2022-10-23T18:21:15.386Z,96888.66
2022-10-23T18:23:18.236Z,96888.44
2022-10-23T18:25:21.755Z,96906.13
2022-10-23T18:27:24.589Z,96910.44
2022-10-23T18:29:27.347Z,96909.38
2022-10-23T18:31:30.687Z,96916.09
2022-10-23T18:33:34.056Z,96923.34
2022-10-23T18:35:39.494Z,96914.00
2022-10-23T18:37:42.296Z,96892.56
2022-10-23T18:39:45.328Z,96897.91
2022-10-23T18:41:48.799Z,96869.78
2022-10-23T18:43:52.787Z,96882.66
2022-10-23T18:45:55.595Z,96892.22
2022-10-23T18:47:58.390Z,96921.47
2022-10-23T18:50:01.404Z,96918.56
2022-10-23T18:52:05.968Z,96917.25
2022-10-23T18:54:11.905Z,96932.31
2022-10-23T18:56:15.939Z,96942.78
2022-10-23T18:58:19.409Z,96942.78
2022-10-23T19:00:22.223Z,96925.38
2022-10-23T19:02:25.119Z,96931.56
2022-10-23T19:04:29.113Z,96937.47
2022-10-23T19:06:34.299Z,96946.34
2022-10-23T19:08:40.028Z,96924.63
2022-10-23T19:10:44.878Z,96888.16
2022-10-23T19:12:47.676Z,96837.19
2022-10-23T19:14:50.448Z,96826.72
2022-10-23T19:17:00.609Z,96871.09
2022-10-23T19:19:06.565Z,96877.19
2022-10-23T19:21:12.642Z,96861.53
2022-10-23T19:23:16.123Z,96815.25
2022-10-23T19:25:25.888Z,96831.50
2022-10-23T19:27:28.778Z,96803.09
2022-10-23T19:29:32.293Z,96785.72
2022-10-23T19:31:36.950Z,96797.81
2022-10-23T19:33:40.008Z,96833.47
2022-10-23T19:35:42.841Z,96846.63
2022-10-23T19:37:45.979Z,96850.91
2022-10-23T19:39:49.007Z,96841.25
2022-10-23T19:41:53.231Z,96802.41
2022-10-23T19:43:55.976Z,96796.00
2022-10-23T19:46:05.095Z,96794.38
2022-10-23T19:48:10.628Z,96791.69
2022-10-23T19:50:13.626Z,96767.56
2022-10-23T19:52:16.434Z,96756.38
2022-10-23T19:54:19.740Z,96762.28
2022-10-23T19:56:22.605Z,96759.09
2022-10-23T19:58:26.660Z,96763.34
2022-10-23T20:00:29.363Z,96756.84
2022-10-23T20:04:43.612Z,96760.59
2022-10-23T20:06:46.742Z,96757.41
2022-10-23T20:08:49.893Z,96756.13
2022-10-23T20:10:52.769Z,96753.75
2022-10-23T20:13:14.769Z,96747.31
2022-10-23T20:15:20.116Z,96750.53
2022-10-23T20:17:23.565Z,96754.59
2022-10-23T20:19:26.472Z,96764.50
2022-10-23T20:21:29.333Z,96768.25
2022-10-23T20:23:32.021Z,96777.88
2022-10-23T20:25:35.707Z,96782.66
2022-10-23T20:27:38.561Z,96769.78
2022-10-23T20:29:41.782Z,96796.00
2022-10-23T20:31:46.404Z,96816.97
2022-10-23T20:33:49.252Z,96822.63
2022-10-23T20:35:52.654Z,96801.19
2022-10-23T20:37:55.442Z,96778.94
2022-10-23T20:39:58.266Z,96746.19
2022-10-23T20:42:02.225Z,96737.09
2022-10-23T20:44:06.746Z,96736.59
2022-10-23T20:46:10.761Z,96750.28
2022-10-23T20:48:14.807Z,96760.28
2022-10-23T20:50:19.184Z,96760.84
2022-10-23T20:52:22.233Z,96773.50
2022-10-23T20:54:27.466Z,96782.94
2022-10-23T20:56:33.039Z,96792.63
2022-10-23T20:58:36.203Z,96796.91
2022-10-23T21:42:16.610Z,96784.97
2022-10-23T21:44:19.392Z,96787.50
2022-10-23T21:46:22.377Z,96813.56
2022-10-23T21:48:25.101Z,96778.13
2022-10-23T21:50:27.960Z,96762.44
2022-10-23T21:52:30.747Z,96758.28
2022-10-23T21:54:33.590Z,96781.66
2022-10-23T21:56:39.760Z,96786.84
2022-10-23T21:58:43.842Z,96803.06
2022-10-23T22:00:46.617Z,96801.81
2022-10-23T22:02:49.717Z,96783.34
2022-10-23T22:04:53.335Z,96791.72
2022-10-23T22:06:56.249Z,96792.53
2022-10-23T22:09:00.957Z,96800.31
2022-10-23T22:11:05.966Z,96784.81
2022-10-23T22:13:08.925Z,96803.34
2022-10-23T22:15:13.099Z,96802.28
2022-10-23T22:17:15.904Z,96815.69
2022-10-23T22:19:21.351Z,96777.34
2022-10-23T22:21:26.819Z,96771.97
2022-10-23T22:23:29.611Z,96762.31
2022-10-23T22:25:32.330Z,96769.53
2022-10-23T22:27:35.027Z,96795.56
2022-10-23T22:29:37.737Z,96827.47
2022-10-23T22:31:45.594Z,96850.53
